AUW weather

Wausau Downtown Airport
Wausau, Wisconsin, United States

Public forecast

Using degrees Fahrenheit for public forecast. Weather courtesy of forecast.io.

METAR (pilot weather report)

Retrieved 2019/09/23 07:54 UTC (40 minutes ago):

KAUW 230754Z AUTO 28005KT 10SM BKN039 BKN100 13/12 A2987 RMK AO2 RAB07E19 SLP117 P0000 T01280122

TAF (pilot weather forecast)

Retrieved 2019/09/23 06:27 UTC (2 hours ago):

TAF KAUW 230525Z 2306/2406 29006KT P6SM SCT022 BKN040 FM231500 29008G16KT P6SM BKN060 FM231700 28012G18KT P6SM SCT045 FM240000 27003KT P6SM SKC